createdAt,value
2018-04-09T00:00:02.838Z,4.60
2018-04-09T00:02:30.346Z,4.00
2018-04-09T00:04:57.895Z,5.27
2018-04-09T00:07:25.422Z,4.47
2018-04-09T00:09:52.970Z,6.47
2018-04-09T00:12:20.485Z,5.37
2018-04-09T00:14:48.013Z,5.67
2018-04-09T00:17:15.534Z,4.83
2018-04-09T00:19:43.074Z,4.50
2018-04-09T00:22:11.356Z,7.40
2018-04-09T00:24:39.658Z,4.97
2018-04-09T00:27:07.235Z,5.27
2018-04-09T00:29:34.766Z,5.10
2018-04-09T00:32:03.043Z,4.50
2018-04-09T00:34:31.346Z,5.10
2018-04-09T00:36:58.929Z,4.37
2018-04-09T00:39:26.581Z,5.40
2018-04-09T00:41:54.101Z,4.80
2018-04-09T00:44:22.439Z,4.70
2018-04-09T00:46:49.978Z,6.23
2018-04-09T00:49:17.499Z,7.17
2018-04-09T00:51:45.812Z,6.40
2018-04-09T00:54:13.324Z,6.50
2018-04-09T00:56:40.858Z,5.80
2018-04-09T00:59:08.377Z,6.27
2018-04-09T01:01:35.959Z,6.60
2018-04-09T01:04:03.478Z,6.30
2018-04-09T01:06:31.781Z,5.03
2018-04-09T01:08:59.293Z,5.27
2018-04-09T01:11:26.926Z,5.63
2018-04-09T01:13:54.488Z,4.90
2018-04-09T01:16:22.027Z,5.63
2018-04-09T01:18:49.537Z,5.07
2018-04-09T01:21:17.080Z,5.33
2018-04-09T01:23:44.594Z,5.80
2018-04-09T01:26:12.903Z,5.27
2018-04-09T01:28:40.415Z,4.97
2018-04-09T01:31:07.954Z,4.47
2018-04-09T01:33:35.469Z,4.10
2018-04-09T01:36:02.993Z,4.57
2018-04-09T01:38:30.610Z,5.17
2018-04-09T01:40:58.129Z,5.20
2018-04-09T01:43:26.426Z,5.27
2018-04-09T01:45:53.948Z,5.30
2018-04-09T01:48:21.482Z,5.47
2018-04-09T01:50:48.993Z,5.40
2018-04-09T01:53:17.289Z,5.47
2018-04-09T01:55:44.815Z,6.40
2018-04-09T01:58:12.357Z,6.80
2018-04-09T02:00:39.865Z,6.27
2018-04-09T02:03:07.454Z,7.50
2018-04-09T02:05:34.967Z,7.10
2018-04-09T02:08:03.280Z,5.90
2018-04-09T02:10:30.807Z,5.30
2018-04-09T02:12:59.119Z,6.43
2018-04-09T02:15:26.638Z,6.70
2018-04-09T02:17:54.958Z,7.13
2018-04-09T02:20:22.525Z,6.47
2018-04-09T02:22:50.043Z,7.00
2018-04-09T02:25:18.361Z,7.60
2018-04-09T02:27:45.872Z,5.97
2018-04-09T02:30:13.417Z,5.33
2018-04-09T02:32:42.478Z,5.83
2018-04-09T02:35:10.025Z,6.60
2018-04-09T02:37:37.538Z,5.80
2018-04-09T02:40:05.076Z,6.93
2018-04-09T02:42:32.623Z,5.90
2018-04-09T02:45:00.164Z,6.27
2018-04-09T02:47:27.687Z,6.57
2018-04-09T02:49:55.227Z,6.97
2018-04-09T02:52:22.742Z,6.80
2018-04-09T02:54:50.529Z,7.17
2018-04-09T02:57:18.050Z,7.10
2018-04-09T02:59:46.374Z,5.50
2018-04-09T03:02:13.922Z,5.40
2018-04-09T03:04:41.438Z,5.03
2018-04-09T03:07:08.983Z,6.30
2018-04-09T03:09:36.518Z,6.10
2018-04-09T03:12:04.053Z,5.33
2018-04-09T03:14:31.575Z,8.67
2018-04-09T03:16:59.119Z,7.00
2018-04-09T03:19:33.302Z,6.60
2018-04-09T03:22:00.871Z,7.07
2018-04-09T03:24:28.434Z,8.20
2018-04-09T03:26:55.973Z,8.87
2018-04-09T03:29:23.490Z,8.17
2018-04-09T03:31:51.018Z,8.40
2018-04-09T03:34:18.538Z,7.57
2018-04-09T03:36:46.848Z,8.27
2018-04-09T03:39:14.366Z,9.80
2018-04-09T03:41:42.661Z,6.90
2018-04-09T03:44:10.943Z,7.07
2018-04-09T03:46:39.351Z,9.17
2018-04-09T03:49:06.872Z,8.93
2018-04-09T03:51:35.170Z,8.93
2018-04-09T03:54:02.703Z,8.50
2018-04-09T03:56:30.229Z,7.90
2018-04-09T03:58:57.762Z,7.27
2018-04-09T04:01:25.274Z,7.20
2018-04-09T04:03:52.805Z,6.27
2018-04-09T04:06:20.325Z,7.20
2018-04-09T04:08:47.929Z,7.50
2018-04-09T04:11:15.438Z,7.73
2018-04-09T04:13:43.730Z,7.90
2018-04-09T04:16:23.900Z,8.17
2018-04-09T04:19:03.185Z,6.70
2018-04-09T04:21:42.586Z,7.40
2018-04-09T04:24:10.126Z,6.70
2018-04-09T04:26:38.406Z,7.53
2018-04-09T04:29:06.710Z,6.93
2018-04-09T04:31:34.225Z,6.90
2018-04-09T04:34:02.531Z,5.77
2018-04-09T04:36:30.046Z,9.77
2018-04-09T04:38:57.590Z,7.60
2018-04-09T04:41:25.100Z,8.73
2018-04-09T04:43:53.404Z,10.57
2018-04-09T04:46:20.930Z,10.50
2018-04-09T04:48:49.253Z,10.03
2018-04-09T04:51:16.777Z,11.57
2018-04-09T04:53:45.050Z,8.33
2018-04-09T04:56:13.345Z,8.73
2018-04-09T04:58:40.854Z,8.30
2018-04-09T05:01:08.386Z,7.43
2018-04-09T05:03:35.945Z,8.07
2018-04-09T05:06:03.516Z,8.30
2018-04-09T05:08:31.082Z,8.40
2018-04-09T05:10:58.608Z,6.40
2018-04-09T05:13:26.894Z,6.73
2018-04-09T05:15:54.469Z,6.70
2018-04-09T05:18:22.036Z,6.93
2018-04-09T05:20:49.569Z,7.93
2018-04-09T05:23:17.853Z,7.63
2018-04-09T05:25:45.389Z,7.33
2018-04-09T05:28:12.902Z,6.90
2018-04-09T05:30:40.449Z,7.23
2018-04-09T05:33:07.964Z,8.20
2018-04-09T05:35:35.524Z,7.50
2018-04-09T05:38:03.052Z,7.73
2018-04-09T05:40:30.571Z,6.30
2018-04-09T05:42:58.872Z,7.37
2018-04-09T05:45:26.443Z,6.10
2018-04-09T05:47:54.005Z,6.37
2018-04-09T05:50:21.525Z,6.80
2018-04-09T05:52:49.818Z,7.40
2018-04-09T05:55:17.333Z,7.27
2018-04-09T05:57:44.874Z,8.67
2018-04-09T06:00:12.388Z,9.80
2018-04-09T06:02:40.694Z,10.27
2018-04-09T06:05:08.209Z,9.33
2018-04-09T06:07:35.750Z,9.17
2018-04-09T06:10:03.286Z,8.80
2018-04-09T06:12:30.867Z,9.40
2018-04-09T06:14:58.401Z,8.87
2018-04-09T06:17:25.941Z,8.90
2018-04-09T06:19:53.519Z,7.63
2018-04-09T06:22:21.053Z,8.23
2018-04-09T06:24:49.332Z,8.60
2018-04-09T06:27:17.642Z,10.47
2018-04-09T06:29:45.167Z,10.07
2018-04-09T06:32:13.474Z,11.40
2018-04-09T06:34:41.033Z,10.47
2018-04-09T06:37:08.566Z,10.00
2018-04-09T06:39:36.103Z,10.30
2018-04-09T06:42:03.657Z,9.90
2018-04-09T06:44:31.177Z,11.67
2018-04-09T06:46:58.701Z,11.60
2018-04-09T06:49:27.001Z,9.50
2018-04-09T06:51:54.521Z,10.80
2018-04-09T06:54:22.056Z,10.50
2018-04-09T06:56:49.578Z,11.80
2018-04-09T06:59:17.137Z,10.93
2018-04-09T07:01:44.656Z,11.90
2018-04-09T07:04:12.199Z,11.30
2018-04-09T07:06:39.717Z,11.93
2018-04-09T07:09:07.258Z,11.17
2018-04-09T07:11:35.541Z,11.67
2018-04-09T07:14:03.851Z,11.23
2018-04-09T07:16:31.369Z,12.07
2018-04-09T07:18:59.687Z,12.50
2018-04-09T07:21:27.214Z,12.07
2018-04-09T07:23:55.517Z,11.77
2018-04-09T07:26:23.035Z,13.03
2018-04-09T07:28:51.351Z,11.90
2018-04-09T07:31:18.868Z,11.80
2018-04-09T07:33:47.182Z,13.03
2018-04-09T07:36:14.725Z,12.13
2018-04-09T07:38:43.130Z,11.67
2018-04-09T07:41:10.697Z,12.13
2018-04-09T07:43:38.254Z,13.03
2018-04-09T07:46:05.950Z,11.60
2018-04-09T07:48:33.478Z,12.27
2018-04-09T07:51:01.043Z,11.70
2018-04-09T07:53:28.601Z,13.00
2018-04-09T07:55:56.144Z,12.17
2018-04-09T07:58:23.665Z,11.50
2018-04-09T08:00:51.210Z,10.93
2018-04-09T08:03:18.737Z,10.93
2018-04-09T08:05:46.278Z,11.07
2018-04-09T08:08:14.560Z,11.53
2018-04-09T08:10:42.097Z,11.70
2018-04-09T08:13:10.404Z,11.67
2018-04-09T08:15:37.974Z,10.23
2018-04-09T08:18:05.537Z,11.20
2018-04-09T08:20:33.097Z,11.47
2018-04-09T08:23:00.622Z,11.00
2018-04-09T08:25:28.953Z,11.47
2018-04-09T08:27:56.497Z,10.43
2018-04-09T08:30:24.019Z,10.73
2018-04-09T08:32:52.329Z,11.70
2018-04-09T08:35:19.845Z,10.07
2018-04-09T08:37:47.381Z,9.80
2018-04-09T08:40:14.901Z,10.10
2018-04-09T08:42:42.445Z,10.40
2018-04-09T08:45:10.731Z,9.87
2018-04-09T08:47:38.269Z,10.50
2018-04-09T08:50:06.590Z,10.17
2018-04-09T08:52:34.139Z,10.47
2018-04-09T08:55:01.658Z,9.83
2018-04-09T08:57:29.205Z,9.87
2018-04-09T08:59:56.723Z,9.43
2018-04-09T09:02:24.257Z,9.37
2018-04-09T09:04:52.545Z,9.10
2018-04-09T09:07:20.063Z,9.17
2018-04-09T09:09:47.601Z,9.00
2018-04-09T09:12:15.147Z,8.53
2018-04-09T09:14:42.677Z,8.20
2018-04-09T09:17:10.956Z,9.03
2018-04-09T09:19:38.493Z,8.00
2018-04-09T09:22:06.008Z,9.33
2018-04-09T09:24:33.539Z,8.17
2018-04-09T09:27:01.054Z,8.30
2018-04-09T09:29:28.658Z,9.23
2018-04-09T09:31:56.133Z,8.00
2018-04-09T09:34:23.707Z,9.37
2018-04-09T09:36:51.222Z,10.03
2018-04-09T09:39:19.528Z,9.93
2018-04-09T09:41:47.041Z,8.20
2018-04-09T09:44:14.584Z,7.73
2018-04-09T09:46:42.100Z,9.10
2018-04-09T09:49:10.408Z,8.57
2018-04-09T09:51:37.941Z,7.57
2018-04-09T09:54:05.453Z,7.87
2018-04-09T09:56:34.493Z,8.97
2018-04-09T09:59:02.007Z,8.13
2018-04-09T10:01:30.317Z,9.90
2018-04-09T10:03:58.601Z,9.97
2018-04-09T10:06:27.107Z,9.33
2018-04-09T10:08:54.625Z,8.90
2018-04-09T10:11:22.925Z,8.73
2018-04-09T10:13:50.506Z,8.10
2018-04-09T10:16:18.066Z,8.33
2018-04-09T10:18:45.577Z,8.40
2018-04-09T10:21:13.108Z,8.17
2018-04-09T10:23:40.620Z,9.47
2018-04-09T10:26:08.137Z,9.53
2018-04-09T10:28:35.677Z,9.10
2018-04-09T10:31:03.190Z,9.40
2018-04-09T10:33:31.502Z,7.67
2018-04-09T10:35:59.019Z,9.33
2018-04-09T10:38:26.558Z,8.70
2018-04-09T10:40:54.182Z,7.80
2018-04-09T10:43:21.723Z,9.10
2018-04-09T10:45:49.249Z,9.30
2018-04-09T10:48:16.791Z,8.83
2018-04-09T10:50:44.326Z,8.40
2018-04-09T10:53:11.864Z,9.47
2018-04-09T10:55:39.437Z,9.77
2018-04-09T10:58:07.709Z,9.87
2018-04-09T11:00:35.229Z,8.80
2018-04-09T11:03:02.764Z,9.73
2018-04-09T11:05:30.281Z,10.87
2018-04-09T11:07:57.836Z,10.53
2018-04-09T11:10:26.131Z,9.40
2018-04-09T11:12:53.693Z,10.70
2018-04-09T11:15:21.271Z,10.00
2018-04-09T11:17:48.818Z,12.20
2018-04-09T11:20:16.353Z,9.90
2018-04-09T11:22:44.642Z,10.80
2018-04-09T11:25:12.176Z,10.50
2018-04-09T11:27:40.466Z,10.50
2018-04-09T11:30:08.772Z,9.60
2018-04-09T11:32:36.288Z,9.10
2018-04-09T11:35:04.606Z,10.30
2018-04-09T11:37:32.277Z,8.83
2018-04-09T11:39:59.837Z,9.70
2018-04-09T11:42:27.351Z,10.23
2018-04-09T11:44:54.884Z,8.20
2018-04-09T11:47:22.417Z,8.03
2018-04-09T11:49:49.952Z,8.87
2018-04-09T11:52:18.233Z,8.80
2018-04-09T11:54:45.771Z,10.40
2018-04-09T11:57:14.063Z,7.90
2018-04-09T11:59:42.360Z,8.20
2018-04-09T12:02:09.908Z,8.03
2018-04-09T12:07:12.039Z,7.83
2018-04-09T12:09:39.552Z,8.00
2018-04-09T12:12:07.085Z,8.53
2018-04-09T12:14:34.594Z,8.03
2018-04-09T12:17:02.119Z,8.27
2018-04-09T12:19:30.401Z,8.50
2018-04-09T12:21:58.694Z,6.30
2018-04-09T12:24:26.215Z,7.17
2018-04-09T12:26:53.753Z,7.67
2018-04-09T12:29:21.269Z,7.90
2018-04-09T12:31:48.847Z,8.97
2018-04-09T12:34:16.365Z,8.20
2018-04-09T12:36:44.667Z,7.00
2018-04-09T12:39:12.244Z,7.40
2018-04-09T12:41:39.767Z,7.80
2018-04-09T12:44:08.047Z,7.50
2018-04-09T12:46:36.343Z,7.47
2018-04-09T12:49:03.853Z,6.83
2018-04-09T12:51:31.409Z,6.80
2018-04-09T12:53:58.923Z,6.40
2018-04-09T12:56:26.500Z,7.47
2018-04-09T12:58:54.052Z,6.53
2018-04-09T13:01:21.607Z,6.50
2018-04-09T13:03:49.150Z,6.10
2018-04-09T13:06:17.427Z,6.90
2018-04-09T13:08:45.724Z,6.10
2018-04-09T13:11:13.241Z,6.17
2018-04-09T13:13:40.774Z,7.27
2018-04-09T13:16:08.287Z,5.57
2018-04-09T13:18:36.588Z,6.60
2018-04-09T13:21:04.154Z,5.93
2018-04-09T13:23:31.689Z,5.60
2018-04-09T13:25:59.278Z,6.07
2018-04-09T13:28:26.815Z,5.60
2018-04-09T13:30:54.332Z,5.53
2018-04-09T13:33:21.846Z,6.40
2018-04-09T13:35:49.437Z,6.60
2018-04-09T13:38:16.944Z,6.47
2018-04-09T13:40:45.247Z,5.73
2018-04-09T13:43:12.751Z,6.30
2018-04-09T13:45:40.284Z,5.30
2018-04-09T13:48:07.823Z,5.57
2018-04-09T13:50:35.355Z,5.40
2018-04-09T13:53:03.634Z,5.37
2018-04-09T13:55:32.034Z,4.23
2018-04-09T13:57:59.552Z,5.07
2018-04-09T14:00:27.091Z,5.57
2018-04-09T14:02:54.615Z,5.60
2018-04-09T14:05:22.151Z,5.40
2018-04-09T14:07:50.435Z,5.47
2018-04-09T14:10:17.971Z,5.10
2018-04-09T14:12:45.493Z,5.07
2018-04-09T14:15:13.001Z,5.43
2018-04-09T14:17:41.303Z,5.00
2018-04-09T14:20:08.877Z,5.40
2018-04-09T14:22:36.416Z,4.83
2018-04-09T14:25:03.960Z,5.77
2018-04-09T14:27:32.254Z,5.10
2018-04-09T14:30:00.532Z,4.27
2018-04-09T14:32:28.073Z,3.93
2018-04-09T14:34:56.358Z,4.90
2018-04-09T14:37:24.662Z,5.53
2018-04-09T14:39:52.229Z,5.00
2018-04-09T14:42:19.788Z,5.17
2018-04-09T14:44:47.299Z,4.97
2018-04-09T14:47:14.832Z,4.90
2018-04-09T14:49:42.343Z,5.40
2018-04-09T14:52:10.745Z,5.50
2018-04-09T14:54:38.260Z,5.23
2018-04-09T14:57:05.799Z,5.23
2018-04-09T14:59:33.317Z,5.60
2018-04-09T15:02:00.847Z,5.10
2018-04-09T15:04:29.129Z,6.23
2018-04-09T15:06:57.435Z,6.17
2018-04-09T15:09:24.968Z,6.00
2018-04-09T15:11:53.248Z,5.60
2018-04-09T15:14:21.548Z,6.30
2018-04-09T15:16:49.119Z,6.30
2018-04-09T15:19:16.692Z,6.03
2018-04-09T15:21:44.188Z,5.80
2018-04-09T15:24:11.721Z,6.27
2018-04-09T15:26:39.253Z,5.77
2018-04-09T15:29:06.785Z,6.33
2018-04-09T15:31:35.073Z,6.10
2018-04-09T15:34:02.616Z,6.47
2018-04-09T15:36:30.932Z,7.73
2018-04-09T15:38:58.492Z,4.50
2018-04-09T15:41:26.008Z,6.60
2018-04-09T15:43:53.615Z,5.33
2018-04-09T15:46:21.175Z,5.80
2018-04-09T15:48:49.435Z,5.50
2018-04-09T15:51:16.956Z,4.83
2018-04-09T15:53:44.571Z,6.37
2018-04-09T15:56:12.103Z,5.33
2018-04-09T15:58:40.379Z,4.23
2018-04-09T16:01:08.683Z,5.70
2018-04-09T16:03:36.190Z,5.40
2018-04-09T16:06:04.492Z,4.60
2018-04-09T16:08:32.775Z,4.80
2018-04-09T16:11:01.072Z,5.47
2018-04-09T16:13:28.639Z,5.33
2018-04-09T16:15:56.169Z,5.53
2018-04-09T16:18:24.448Z,4.63
2018-04-09T16:20:52.739Z,4.63
2018-04-09T16:23:20.317Z,5.70
2018-04-09T16:25:47.860Z,5.60
2018-04-09T16:28:15.384Z,5.53
2018-04-09T16:30:42.914Z,4.73
2018-04-09T16:33:10.427Z,6.43
2018-04-09T16:35:38.744Z,5.03
2018-04-09T16:38:06.260Z,4.57
2018-04-09T16:40:34.543Z,5.00
2018-04-09T16:43:02.848Z,4.30
2018-04-09T16:45:30.363Z,5.27
2018-04-09T16:47:57.899Z,5.13
2018-04-09T16:50:25.410Z,4.40
2018-04-09T16:52:52.942Z,5.20
2018-04-09T16:55:20.539Z,4.47
2018-04-09T16:57:48.071Z,4.57
2018-04-09T17:00:16.358Z,4.60
2018-04-09T17:02:43.892Z,3.93
2018-04-09T17:05:11.404Z,3.87
2018-04-09T17:07:38.938Z,4.00
2018-04-09T17:10:07.211Z,3.20
2018-04-09T17:12:35.519Z,3.70
2018-04-09T17:15:03.036Z,3.37
2018-04-09T17:17:30.568Z,3.00
2018-04-09T17:19:58.133Z,3.93
2018-04-09T17:22:25.620Z,3.60
2018-04-09T17:24:53.920Z,3.90
2018-04-09T17:27:21.435Z,4.20
2018-04-09T17:29:49.061Z,4.50
2018-04-09T17:32:16.621Z,5.30
2018-04-09T17:34:44.151Z,4.77
2018-04-09T17:37:12.431Z,4.70
2018-04-09T17:39:40.724Z,5.50
2018-04-09T17:42:08.235Z,5.60
2018-04-09T17:44:35.767Z,5.33
2018-04-09T17:47:03.316Z,4.87
2018-04-09T17:49:30.879Z,3.73
2018-04-09T17:51:58.390Z,5.13
2018-04-09T17:54:26.708Z,4.83
2018-04-09T17:56:54.224Z,4.80
2018-04-09T17:59:21.751Z,5.87
2018-04-09T18:01:49.264Z,5.27
2018-04-09T18:04:16.876Z,6.00
2018-04-09T18:06:44.415Z,6.37
2018-04-09T18:09:11.932Z,5.90
2018-04-09T18:11:40.227Z,5.20
2018-04-09T18:14:08.527Z,5.13
2018-04-09T18:16:36.054Z,5.37
2018-04-09T18:19:04.329Z,5.67
2018-04-09T18:21:32.628Z,4.90
2018-04-09T18:24:00.145Z,5.23
2018-04-09T18:26:27.681Z,4.77
2018-04-09T18:28:55.196Z,5.40
2018-04-09T18:31:23.491Z,4.97
2018-04-09T18:33:51.056Z,4.83
2018-04-09T18:36:18.621Z,4.60
2018-04-09T18:38:46.131Z,4.90
2018-04-09T18:41:15.168Z,4.77
2018-04-09T18:43:42.739Z,6.10
2018-04-09T18:46:10.268Z,4.93
2018-04-09T18:48:38.574Z,4.53
2018-04-09T18:51:06.130Z,5.30
2018-04-09T18:53:33.696Z,4.30
2018-04-09T18:56:01.207Z,6.00
2018-04-09T18:58:29.511Z,5.77
2018-04-09T19:00:57.786Z,4.67
2018-04-09T19:03:26.083Z,6.20
2018-04-09T19:05:53.596Z,5.23
2018-04-09T19:08:21.135Z,5.00
2018-04-09T19:10:48.667Z,5.00
2018-04-09T19:13:16.205Z,5.43
2018-04-09T19:15:44.485Z,5.10
2018-04-09T19:18:12.065Z,5.00
2018-04-09T19:20:39.584Z,5.10
2018-04-09T19:23:07.119Z,5.10
2018-04-09T19:25:34.628Z,5.47
2018-04-09T19:28:02.164Z,5.90
2018-04-09T19:30:30.485Z,5.80
2018-04-09T19:32:58.044Z,5.17
2018-04-09T19:35:25.555Z,5.37
2018-04-09T19:37:58.886Z,5.53
2018-04-09T19:40:32.023Z,5.63
2018-04-09T19:42:59.551Z,5.97
2018-04-09T19:45:27.063Z,5.27
2018-04-09T19:47:56.116Z,5.73
2018-04-09T19:50:23.635Z,5.07
2018-04-09T19:52:52.039Z,5.83
2018-04-09T19:55:19.563Z,5.40
2018-04-09T19:57:47.863Z,5.83
2018-04-09T20:00:15.384Z,5.73
2018-04-09T20:02:42.925Z,5.20
2018-04-09T20:05:10.440Z,5.30
2018-04-09T20:07:37.978Z,5.03
2018-04-09T20:10:06.297Z,5.40
2018-04-09T20:12:33.832Z,4.80
2018-04-09T20:15:02.107Z,4.77
2018-04-09T20:17:30.400Z,5.40
2018-04-09T20:19:57.931Z,6.50
2018-04-09T20:22:25.444Z,5.17
2018-04-09T20:24:52.981Z,5.70
2018-04-09T20:27:20.497Z,4.60
2018-04-09T20:29:48.033Z,5.20
2018-04-09T20:32:15.543Z,5.70
2018-04-09T20:34:43.849Z,4.53
2018-04-09T20:37:11.363Z,5.90
2018-04-09T20:39:38.904Z,5.83
2018-04-09T20:42:06.430Z,5.23
2018-04-09T20:44:33.958Z,5.80
2018-04-09T20:47:02.234Z,4.97
2018-04-09T20:49:30.536Z,5.10
2018-04-09T20:51:58.054Z,5.47
2018-04-09T20:54:25.588Z,5.60
2018-04-09T20:56:53.101Z,5.20
2018-04-09T20:59:21.499Z,4.63
2018-04-09T21:01:49.020Z,4.93
2018-04-09T21:04:16.555Z,4.90
2018-04-09T21:06:44.068Z,4.10
2018-04-09T21:09:11.598Z,5.90
2018-04-09T21:11:39.200Z,5.63
2018-04-09T21:14:06.737Z,5.00
2018-04-09T21:16:35.040Z,5.10
2018-04-09T21:19:02.572Z,5.90
2018-04-09T21:21:30.882Z,6.50
2018-04-09T21:23:58.410Z,6.87
2018-04-09T21:26:26.725Z,6.93
2018-04-09T21:28:54.255Z,6.30
2018-04-09T21:31:22.534Z,7.57
2018-04-09T21:33:50.831Z,5.83
2018-04-09T21:36:18.339Z,6.50
2018-04-09T21:38:47.378Z,5.53
2018-04-09T21:41:14.944Z,5.60
2018-04-09T21:43:42.508Z,5.10
2018-04-09T21:46:10.021Z,4.77
2018-04-09T21:48:38.323Z,5.30
2018-04-09T21:51:06.626Z,4.77
2018-04-09T21:53:34.171Z,5.77
2018-04-09T21:56:01.683Z,5.73
2018-04-09T21:58:29.219Z,4.67
2018-04-09T22:00:56.732Z,5.70
2018-04-09T22:03:25.045Z,5.20
2018-04-09T22:05:52.560Z,6.10
2018-04-09T22:08:20.101Z,6.50
2018-04-09T22:10:47.617Z,6.40
2018-04-09T22:13:15.159Z,6.80
2018-04-09T22:15:43.436Z,6.90
2018-04-09T22:18:11.744Z,5.60
2018-04-09T22:20:39.256Z,6.00
2018-04-09T22:23:07.527Z,6.80
2018-04-09T22:25:36.563Z,6.27
2018-04-09T22:28:04.076Z,6.00
2018-04-09T22:30:31.926Z,5.83
2018-04-09T22:32:59.431Z,6.20
2018-04-09T22:35:27.732Z,6.03
2018-04-09T22:37:55.243Z,5.97
2018-04-09T22:40:23.567Z,5.60
2018-04-09T22:42:51.131Z,5.50
2018-04-09T22:45:18.663Z,5.50
2018-04-09T22:47:46.943Z,5.50
2018-04-09T22:50:15.239Z,6.97
2018-04-09T22:52:42.753Z,7.23
2018-04-09T22:55:10.280Z,6.70
2018-04-09T22:57:37.788Z,8.00
2018-04-09T23:00:06.104Z,7.67
2018-04-09T23:02:33.664Z,7.57
2018-04-09T23:05:01.192Z,7.37
2018-04-09T23:07:29.469Z,7.37
2018-04-09T23:09:57.763Z,8.33
2018-04-09T23:12:25.274Z,7.10
2018-04-09T23:14:52.808Z,7.83
2018-04-09T23:17:20.319Z,8.90
2018-04-09T23:19:48.618Z,8.13
2018-04-09T23:22:28.115Z,8.10
2018-04-09T23:24:55.641Z,7.13
2018-04-09T23:27:23.153Z,8.20
2018-04-09T23:29:51.452Z,7.47
2018-04-09T23:32:18.963Z,8.90
2018-04-09T23:34:46.486Z,7.13
2018-04-09T23:37:13.999Z,7.77
2018-04-09T23:39:41.616Z,7.47
2018-04-09T23:42:09.128Z,6.57
2018-04-09T23:44:36.652Z,6.20
2018-04-09T23:47:04.168Z,6.27
2018-04-09T23:49:32.463Z,7.10
2018-04-09T23:51:59.971Z,6.80
2018-04-09T23:54:27.503Z,7.30
2018-04-09T23:56:55.050Z,7.73
2018-04-09T23:59:22.582Z,7.17
